• Join FlightAware (Why Join?)
  • Login
  • US Flag 
02:02PM EDT


 

Airport Tracker/Info


-or-


 

Live Flight TrackerFlight Track Log ✈ AAL119 ✈ 25-Apr-2013 ✈ KEWR - KLAX

Flight Track Log - Related Links

Times and Time Zones

All times are in EDT time to prevent confusion due to time zone crossing. See the AAL119 flight status page for this flight to view local times or setup timezone preferences in your user account.

Time Position Orientation Groundspeed Altitude Reporting Facility
EDT Latitude Longitude Course Direction KTS MPH feet Rate Location/Type
07:02PM 40.6737 -74.1806 206° Southwest 155 178 300  Level FlightAware ADS-B
07:02PM 40.6662 -74.1844 201° Southwest 169 194 800 2,820 Climbing FlightAware ADS-B
07:03PM 40.6602 -74.1856 189° South 177 204 1,100 1,800 Climbing FlightAware ADS-B
07:03PM 40.6558 -74.1860 184° South 182 209 1,200 1,500 Climbing FlightAware ADS-B
07:03PM 40.6501 -74.1871 188° South 187 215 1,400 1,260 Climbing FlightAware ADS-B
07:03PM 40.6440 -74.1898 199° South 194 223 1,500 540 Climbing FlightAware ADS-B
07:03PM 40.6412 -74.1920 211° Southwest 197 227 1,500 780 Level FlightAware ADS-B
07:03PM 40.6339 -74.2027 228° Southwest 207 238 1,700 960 Climbing FlightAware ADS-B
07:03PM 40.6316 -74.2101 248° West 214 246 1,800 960 Climbing FlightAware ADS-B
07:03PM 40.6305 -74.2181 260° West 223 257 1,900 1,200 Climbing FlightAware ADS-B
07:03PM 40.6306 -74.2239 271° West 226 260 2,000 1,320 Climbing FlightAware ADS-B
07:04PM 40.6317 -74.2311 281° West 231 266 2,100 1,500 Climbing FlightAware ADS-B
07:04PM 40.6349 -74.2403 295° West 245 282 2,300 1,800 Climbing FlightAware ADS-B
07:04PM 40.6370 -74.2440 307° West 247 284 2,400 1,980 Climbing FlightAware ADS-B
07:04PM 40.6394 -74.2473 314° West 253 291 2,500 2,220 Climbing FlightAware ADS-B
07:04PM 40.6441 -74.2522 322° Northwest 255 293 2,700 2,520 Climbing FlightAware ADS-B
07:04PM 40.6600 -74.2666 326° Northwest 257 296 3,400 2,820 Climbing FlightAware ADS-B
07:04PM 40.6779 -74.2817 327° Northwest 260 299 4,300 2,820 Climbing FlightAware ADS-B
07:05PM 40.6948 -74.2963 327° Northwest 265 305 5,000 2,580 Climbing FlightAware ADS-B
07:05PM 40.7092 -74.3115 321° Northwest 265 305 5,700 2,820 Climbing FlightAware ADS-B
07:05PM 40.7120 -74.3162 308° West 265 305 5,900 3,300 Climbing FlightAware ADS-B
07:05PM 40.7157 -74.3244 301° West 266 306 6,200 2,460 Climbing FlightAware ADS-B
07:05PM 40.7192 -74.3330 298° West 267 307 6,400 2,220 Climbing FlightAware ADS-B
07:05PM 40.7247 -74.3471 297° West 268 308 6,800 2,760 Climbing FlightAware ADS-B
07:05PM 40.7278 -74.3551 297° West 268 308 7,100 3,120 Climbing FlightAware ADS-B
07:06PM 40.7344 -74.3717 298° West 268 308 7,700 3,000 Climbing FlightAware ADS-B
07:06PM 40.7383 -74.3811 299° West 268 308 8,000 3,000 Climbing FlightAware ADS-B
07:06PM 40.7439 -74.3945 299° West 267 307 8,500 2,760 Climbing FlightAware ADS-B
07:06PM 40.7471 -74.4020 299° West 266 306 8,700 2,520 Climbing FlightAware ADS-B
07:06PM 40.7481 -74.4040 303° West 265 305 8,800 3,600 Climbing FlightAware ADS-B
07:06PM 40.7508 -74.4087 307° West 265 305 9,000 3,000 Climbing FlightAware ADS-B
07:06PM 40.7529 -74.4118 312° West 268 308 9,100 2,640 Climbing FlightAware ADS-B
07:06PM 40.7586 -74.4191 316° Northwest 267 307 9,400 1,980 Climbing FlightAware ADS-B
07:06PM 40.7667 -74.4282 320° Northwest 268 308 9,600 1,380 Climbing FlightAware ADS-B
07:07PM 40.7753 -74.4362 325° Northwest 272 313 9,800 1,260 Climbing FlightAware ADS-B
07:07PM 40.7816 -74.4410 330° Northwest 276 318 9,900 2,100 Climbing FlightAware ADS-B
07:07PM 40.7938 -74.4497 332° Northwest 275 316 10,400 2,820 Climbing FlightAware ADS-B
07:07PM 40.8224 -74.4694 332° Northwest 275 316 11,600 2,760 Climbing FlightAware ADS-B
07:07PM 40.8252 -74.4708 339° North 278 320 11,700 2,520 Climbing FlightAware ADS-B
07:07PM 40.8311 -74.4726 347° North 283 326 11,900 1,980 Climbing FlightAware ADS-B
07:07PM 40.8329 -74.4729 353° North 284 327 11,900 2,220 Level FlightAware ADS-B
07:07PM 40.8413 -74.4732 358° North 291 335 12,200 3,000 Climbing FlightAware ADS-B
07:08PM 40.8473 -74.4721 North 291 335 12,400 2,520 Climbing FlightAware ADS-B
07:08PM 40.8506 -74.4709 15° North 297 342 12,500 1,500 Climbing FlightAware ADS-B
07:08PM 40.8525 -74.4703 13° North 298 343 12,500 2,220 Level FlightAware ADS-B
07:08PM 40.8857 -74.4528 22° Northeast 310 357 13,500 2,280 Climbing FlightAware ADS-B
07:08PM 40.8975 -74.4477 18° North 308 354 13,800 1,980 Climbing FlightAware ADS-B
07:08PM 40.9028 -74.4465 10° North 307 353 13,900 2,520 Climbing FlightAware ADS-B
07:08PM 40.9076 -74.4461 North 303 349 14,100 2,220 Climbing FlightAware ADS-B
07:08PM 40.9133 -74.4463 358° North 301 346 14,200 1,980 Climbing FlightAware ADS-B
07:08PM 40.9199 -74.4470 355° North 301 346 14,400 2,460 Climbing FlightAware ADS-B
07:09PM 40.9622 -74.4536 353° North 308 354 15,600 1,320 Climbing FlightAware ADS-B
07:09PM 41.0057 -74.4589 355° North 309 356 15,800 180 Climbing FlightAware ADS-B
07:10PM 41.0494 -74.4641 355° North 307 353 15,800  Level FlightAware ADS-B
07:10PM 41.0645 -74.4683 348° North 297 342 15,800  Level FlightAware ADS-B
07:10PM 41.0705 -74.4719 336° Northwest 292 336 15,800  Level FlightAware ADS-B
07:10PM 41.0808 -74.4815 325° Northwest 291 335 15,800  Level FlightAware ADS-B
07:11PM 41.0926 -74.5023 307° West 292 336 15,800  Level FlightAware ADS-B
07:11PM 41.0939 -74.5062 294° West 291 335 15,800  Level FlightAware ADS-B
07:11PM 41.0955 -74.5118 291° West 294 338 15,800  Level FlightAware ADS-B
07:11PM 41.1077 -74.5667 286° West 324 373 15,800  Level FlightAware ADS-B
07:12PM 41.1208 -74.6260 286° West 335 386 15,800  Level FlightAware ADS-B
07:12PM 41.1337 -74.6817 287° West 334 384 15,800  Level FlightAware ADS-B
07:12PM 41.1418 -74.7068 293° West 336 387 15,800 660 Level FlightAware ADS-B
07:13PM 41.1650 -74.7610 300° West 340 391 16,300 1,680 Climbing FlightAware ADS-B
07:13PM 41.1889 -74.8161 300° West 342 394 17,500 2,220 Climbing FlightAware ADS-B
07:14PM 41.2133 -74.8725 300° West 349 402 18,600 1,980 Climbing FlightAware ADS-B
07:14PM 41.2390 -74.9315 300° West 359 413 19,600 2,040 Climbing FlightAware ADS-B
07:15PM 41.2664 -74.9948 300° West 363 418 20,800 2,040 Climbing FlightAware ADS-B
07:16PM 41.2922 -75.0543 300° West 370 426 21,800 1,920 Climbing FlightAware ADS-B
07:16PM 41.3179 -75.1142 300° West 374 430 22,800 1,920 Climbing FlightAware ADS-B
07:17PM 41.3441 -75.1748 300° West 377 434 23,800 1,860 Climbing FlightAware ADS-B
07:17PM 41.3702 -75.2354 300° West 380 437 24,700 1,740 Climbing FlightAware ADS-B
07:18PM 41.3986 -75.3020 300° West 384 442 25,600 1,620 Climbing FlightAware ADS-B
07:18PM 41.4285 -75.3720 300° West 389 448 26,500 1,800 Climbing FlightAware ADS-B
07:19PM 41.4592 -75.4437 300° West 383 441 27,700 1,800 Climbing FlightAware ADS-B
07:19PM 41.4827 -75.5066 297° West 381 438 28,500 1,200 Climbing FlightAware ADS-B
07:20PM 41.5100 -75.6019 291° West 387 445 29,200 600 Climbing FlightAware ADS-B
07:20PM 41.5308 -75.6755 291° West 399 459 29,300 420 Climbing FlightAware ADS-B
07:21PM 41.5516 -75.7480 291° West 411 473 29,700 900 Climbing FlightAware ADS-B
07:22PM 41.5750 -75.8298 291° West 415 478 30,300 1,080 Climbing FlightAware ADS-B
07:22PM 41.5961 -75.9039 291° West 417 480 30,900 1,200 Climbing FlightAware ADS-B
07:23PM 41.6183 -75.9809 291° West 415 478 31,600 960 Climbing FlightAware ADS-B
07:23PM 41.6405 -76.0582 291° West 411 473 32,000 300 Climbing FlightAware ADS-B
07:24PM 41.6648 -76.1449 291° West 410 472 32,000 420 Level FlightAware ADS-B
07:24PM 41.6861 -76.2216 290° West 408 470 32,500 1,200 Climbing FlightAware ADS-B
07:25PM 41.7069 -76.2962 291° West 403 464 33,300 1,260 Climbing FlightAware ADS-B
07:25PM 41.7277 -76.3706 291° West 401 461 33,900 840 Climbing FlightAware ADS-B
07:26PM 41.7580 -76.4797 290° West 406 467 34,400 540 Climbing FlightAware ADS-B
07:27PM 41.7816 -76.5654 290° West 409 471 34,700 600 Climbing FlightAware ADS-B
07:28PM 41.8180 -76.6980 290° West 414 476 35,400 780 Climbing FlightAware
07:28PM 41.8450 -76.7950 291° West 410 472 36,000 420 Climbing FlightAware
07:29PM 41.8710 -76.8890 290° West 404 465 36,000  Level FlightAware
07:30PM 41.8930 -76.9710 290° West 402 463 36,000  Level FlightAware
07:30PM 41.9210 -77.0730 290° West 403 464 36,000  Level FlightAware
07:31PM 41.9530 -77.1910 290° West 404 465 36,000  Level FlightAware
07:32PM 41.9790 -77.2890 290° West 405 466 36,000  Level FlightAware
07:33PM 42.0030 -77.3800 290° West 405 466 36,000  Level FlightAware
07:33PM 42.0320 -77.4890 290° West 406 467 36,000  Level FlightAware
07:34PM 42.0570 -77.5820 290° West 407 468 36,000  Level FlightAware
07:35PM 42.0860 -77.6900 290° West 409 471 36,000  Level FlightAware
07:35PM 42.1110 -77.7860 289° West 410 472 36,000  Level FlightAware
07:36PM 42.1370 -77.8840 290° West 412 474 36,000  Level FlightAware
07:37PM 42.1640 -77.9890 289° West 410 472 36,000  Level FlightAware
07:37PM 42.1890 -78.0850 289° West 408 470 36,000  Level FlightAware
07:38PM 42.2140 -78.1840 289° West 408 470 36,000  Level FlightAware
07:39PM 42.2400 -78.2820 290° West 408 470 36,000  Level FlightAware
07:40PM 42.2670 -78.3880 289° West 408 470 36,000  Level FlightAware
07:40PM 42.2950 -78.4970 289° West 409 471 36,000  Level FlightAware
07:41PM 42.3200 -78.5930 289° West 409 471 36,000  Level FlightAware
07:42PM 42.3470 -78.6980 289° West 410 472 36,000  Level FlightAware
07:42PM 42.3710 -78.7970 288° West 410 472 36,000  Level FlightAware
07:43PM 42.3950 -78.8890 289° West 409 471 36,000  Level FlightAware
07:44PM 42.4230 -79.0040 288° West 409 471 36,000  Level FlightAware
07:44PM 42.4460 -79.0950 289° West 409 471 36,000  Level FlightAware
07:45PM 42.4740 -79.2070 289° West 407 468 36,000  Level FlightAware
07:46PM 42.4920 -79.3070 284° West 408 470 36,000  Level FlightAware
07:47PM 42.4970 -79.4090 274° West 407 468 36,000  Level FlightAware
07:47PM 42.5030 -79.5210 274° West 408 470 36,000  Level FlightAware
07:48PM 42.5080 -79.6280 274° West 410 472 36,000  Level FlightAware
07:49PM 42.5130 -79.7410 273° West 410 472 36,000  Level FlightAware
07:49PM 42.5180 -79.8380 274° West 409 471 36,000  Level FlightAware
07:50PM 42.5220 -79.9400 273° West 409 471 36,000  Level FlightAware
07:51PM 42.5270 -80.0480 274° West 410 472 36,000  Level FlightAware
07:51PM 42.5320 -80.1620 273° West 410 472 36,000  Level FlightAware
07:52PM 42.5370 -80.2800 273° West 410 472 36,000  Level FlightAware
07:53PM 42.5410 -80.3830 273° West 410 472 36,000  Level FlightAware
07:54PM 42.5460 -80.4850 274° West 410 472 36,000  Level FlightAware
07:54PM 42.5500 -80.5910 273° West 410 472 36,000  Level FlightAware
07:55PM 42.5530 -80.6880 272° West 409 471 36,000  Level FlightAware
07:56PM 42.5580 -80.8040 273° West 408 470 36,000  Level FlightAware
07:56PM 42.5620 -80.9200 273° West 408 470 36,000  Level FlightAware
07:57PM 42.5660 -81.0160 273° West 408 470 36,000  Level FlightAware
07:58PM 42.5700 -81.1370 273° West 410 472 36,000  Level FlightAware
07:58PM 42.5730 -81.2390 272° West 411 473 36,000  Level FlightAware
07:59PM 42.5760 -81.3380 272° West 411 473 36,000  Level FlightAware
08:00PM 42.5830 -81.4480 275° West 409 471 36,000  Level FlightAware
08:01PM 42.6000 -81.5480 283° West 408 470 36,000  Level FlightAware
08:01PM 42.6190 -81.6500 284° West 407 468 36,000  Level FlightAware
08:02PM 42.6360 -81.7480 283° West 406 467 36,000  Level FlightAware
08:03PM 42.6570 -81.8670 284° West 403 464 36,000  Level FlightAware
08:03PM 42.6710 -81.9520 283° West 401 461 36,000  Level FlightAware
08:04PM 42.6900 -82.0600 283° West 399 459 36,000  Level FlightAware
08:05PM 42.7050 -82.1460 283° West 396 456 36,000  Level FlightAware
08:05PM 42.7240 -82.2580 283° West 394 453 36,000  Level FlightAware
08:06PM 42.7420 -82.3610 283° West 390 449 36,000  Level FlightAware
08:07PM 42.7640 -82.4950 283° West 388 447 36,000  Level FlightAware
08:08PM 42.7810 -82.5950 283° West 387 445 36,000  Level FlightAware
08:09PM 42.7990 -82.7050 283° West 388 447 36,000  Level FlightAware
08:09PM 42.8120 -82.7820 283° West 388 447 36,000  Level FlightAware
08:10PM 42.8290 -82.8880 282° West 387 445 36,000  Level FlightAware
08:11PM 42.8490 -83.0070 283° West 387 445 36,000  Level FlightAware
08:11PM 42.8620 -83.0870 283° West 388 447 36,000  Level FlightAware
08:12PM 42.8760 -83.1780 282° West 388 447 36,000  Level FlightAware
08:13PM 42.8960 -83.2990 283° West 389 448 36,000  Level FlightAware
08:13PM 42.9120 -83.4010 282° West 389 448 36,000  Level FlightAware
08:14PM 42.9280 -83.5020 282° West 389 448 36,000  Level FlightAware
08:15PM 42.9460 -83.6180 282° West 391 450 36,000  Level FlightAware
08:16PM 42.9640 -83.7300 282° West 391 450 36,000  Level FlightAware
08:16PM 42.9750 -83.8280 279° West 393 452 36,000  Level FlightAware
08:17PM 42.9850 -83.9230 278° West 392 451 36,000  Level FlightAware
08:18PM 42.9960 -84.0340 278° West 392 451 36,000  Level FlightAware
08:18PM 43.0060 -84.1310 278° West 391 450 36,000  Level FlightAware
08:19PM 43.0170 -84.2410 278° West 390 449 36,000  Level FlightAware
08:20PM 43.0260 -84.3400 277° West 389 448 36,000  Level FlightAware
08:20PM 43.0360 -84.4350 278° West 386 444 36,000  Level FlightAware
08:21PM 43.0460 -84.5430 277° West 385 443 36,000  Level FlightAware
08:22PM 43.0550 -84.6390 277° West 383 441 36,000  Level FlightAware
08:23PM 43.0660 -84.7480 278° West 384 442 36,000  Level FlightAware
08:23PM 43.0750 -84.8450 277° West 383 441 36,000  Level FlightAware
08:24PM 43.0850 -84.9520 277° West 381 438 36,000  Level FlightAware
08:25PM 43.0930 -85.0490 276° West 379 436 36,000  Level FlightAware
08:25PM 43.1020 -85.1410 278° West 378 435 36,000  Level FlightAware
08:26PM 43.1110 -85.2490 277° West 376 433 36,000  Level FlightAware
08:27PM 43.1190 -85.3410 277° West 374 430 36,000  Level FlightAware
08:27PM 43.1280 -85.4360 277° West 375 432 36,000  Level FlightAware
08:28PM 43.1370 -85.5420 277° West 381 438 36,000  Level FlightAware
08:29PM 43.1460 -85.6400 277° West 382 440 36,000  Level FlightAware
08:30PM 43.1550 -85.7470 277° West 381 438 36,000  Level FlightAware
08:30PM 43.1630 -85.8430 277° West 380 437 36,000  Level FlightAware
08:31PM 43.1710 -85.9360 277° West 380 437 36,000  Level FlightAware
08:32PM 43.1800 -86.0480 276° West 382 440 36,000  Level FlightAware
08:33PM 43.1910 -86.1760 277° West 382 440 36,000  Level FlightAware
08:33PM 43.1980 -86.2710 276° West 384 442 36,000  Level FlightAware
08:34PM 43.1950 -86.3790 268° West 387 445 36,000  Level FlightAware
08:35PM 43.1920 -86.4770 268° West 385 443 36,000  Level FlightAware
08:35PM 43.1880 -86.5890 267° West 384 442 36,000  Level FlightAware
08:36PM 43.1850 -86.6860 268° West 383 441 36,000  Level FlightAware
08:37PM 43.1810 -86.7840 267° West 381 438 36,000  Level FlightAware
08:37PM 43.1770 -86.8840 267° West 380 437 36,000  Level FlightAware
08:38PM 43.1730 -86.9870 267° West 378 435 36,000  Level FlightAware
08:39PM 43.1690 -87.0940 267° West 376 433 36,000  Level FlightAware
08:40PM 43.1660 -87.1910 268° West 376 433 36,000  Level FlightAware
08:40PM 43.1600 -87.3190 266° West 376 433 36,000  Level FlightAware
08:41PM 43.1560 -87.4130 267° West 376 433 36,000  Level FlightAware
08:42PM 43.1520 -87.5230 267° West 378 435 36,000  Level FlightAware
08:43PM 43.1480 -87.6180 267° West 379 436 36,000  Level FlightAware
08:43PM 43.1430 -87.7230 266° West 379 436 36,000  Level FlightAware
08:44PM 43.1390 -87.8200 267° West 379 436 36,000  Level FlightAware
08:45PM 43.1340 -87.9300 266° West 380 437 36,000  Level FlightAware
08:45PM 43.1290 -88.0230 266° West 380 437 36,000  Level FlightAware
08:46PM 43.1250 -88.1160 267° West 380 437 36,000  Level FlightAware
08:47PM 43.1200 -88.2200 266° West 379 436 36,000  Level FlightAware
08:47PM 43.1150 -88.3230 266° West 379 436 36,000  Level FlightAware
08:48PM 43.1070 -88.4170 263° West 379 436 36,000  Level FlightAware
08:49PM 43.0990 -88.5270 264° West 377 434 36,000  Level FlightAware
08:50PM 43.0920 -88.6230 264° West 377 434 36,000  Level FlightAware
08:50PM 43.0850 -88.7260 265° West 378 435 36,000  Level FlightAware
08:51PM 43.0770 -88.8220 264° West 378 435 36,000  Level FlightAware
08:52PM 43.0700 -88.9160 264° West 379 436 36,000  Level FlightAware
08:52PM 43.0620 -89.0240 264° West 380 437 36,000  Level FlightAware
08:53PM 43.0540 -89.1200 264° West 377 434 36,000  Level FlightAware
08:54PM 43.0470 -89.2130 264° West 372 428 36,000  Level FlightAware
08:54PM 43.0390 -89.3160 264° West 371 427 36,000  Level FlightAware
08:55PM 43.0310 -89.4090 263° West 371 427 36,000  Level FlightAware
08:56PM 43.0230 -89.5150 264° West 370 426 36,000  Level FlightAware
08:57PM 43.0150 -89.6090 263° West 370 426 36,000  Level FlightAware
08:57PM 43.0060 -89.7110 263° West 369 425 36,000  Level FlightAware
08:58PM 42.9990 -89.8020 264° West 369 425 36,000  Level FlightAware
08:59PM 42.9920 -89.8810 263° West 369 425 36,000  Level FlightAware
08:59PM 42.9820 -90.0020 264° West 370 426 36,000  Level FlightAware
09:00PM 42.9740 -90.0920 263° West 370 426 36,000  Level FlightAware
09:01PM 42.9650 -90.1960 263° West 371 427 36,000  Level FlightAware
09:01PM 42.9560 -90.2900 263° West 373 429 36,000  Level FlightAware
09:02PM 42.9480 -90.3820 263° West 375 432 36,000  Level FlightAware
09:03PM 42.9390 -90.4900 264° West 377 434 36,000  Level FlightAware
09:04PM 42.9300 -90.5860 263° West 377 434 36,000  Level FlightAware
09:04PM 42.9200 -90.6930 263° West 377 434 36,000  Level FlightAware
09:05PM 42.9110 -90.7860 263° West 375 432 36,000  Level FlightAware
09:06PM 42.9030 -90.8770 263° West 375 432 36,000  Level FlightAware
09:06PM 42.8930 -90.9850 263° West 375 432 36,000  Level FlightAware
09:07PM 42.8840 -91.0720 262° West 374 430 36,000  Level FlightAware
09:08PM 42.8740 -91.1750 262° West 373 429 36,000  Level FlightAware
09:08PM 42.8660 -91.2620 263° West 372 428 36,000  Level FlightAware
09:09PM 42.8560 -91.3580 262° West 371 427 36,000  Level FlightAware
09:10PM 42.8460 -91.4630 263° West 371 427 36,000  Level FlightAware
09:11PM 42.8330 -91.5920 262° West 371 427 36,000  Level FlightAware
09:11PM 42.8240 -91.6820 262° West 372 428 36,000  Level FlightAware
09:12PM 42.8130 -91.7880 262° West 372 428 36,000  Level FlightAware
09:13PM 42.8040 -91.8750 262° West 372 428 36,000  Level FlightAware
09:14PM 42.7910 -92.0060 262° West 371 427 36,000  Level FlightAware
09:15PM 42.7790 -92.1180 262° West 370 426 36,000  Level FlightAware
09:15PM 42.7690 -92.2060 261° West 369 425 36,000  Level FlightAware
09:16PM 42.7600 -92.2930 262° West 368 423 36,000  Level FlightAware
09:17PM 42.7480 -92.4040 262° West 369 425 36,000  Level FlightAware
09:17PM 42.7370 -92.5080 262° West 371 427 36,000  Level FlightAware
09:18PM 42.7270 -92.5960 261° West 372 428 36,000  Level FlightAware
09:19PM 42.7170 -92.6900 262° West 374 430 36,000  Level FlightAware
09:19PM 42.7050 -92.7990 262° West 377 434 36,000  Level FlightAware
09:20PM 42.6950 -92.8920 262° West 379 436 36,000  Level FlightAware
09:21PM 42.6820 -93.0000 261° West 379 436 36,000  Level FlightAware
09:22PM 42.6720 -93.0950 262° West 379 436 36,000  Level FlightAware
09:22PM 42.6600 -93.2000 261° West 379 436 36,000  Level FlightAware
09:23PM 42.6490 -93.2940 261° West 377 434 36,000  Level FlightAware
09:24PM 42.6370 -93.3960 261° West 374 430 36,000  Level FlightAware
09:24PM 42.6260 -93.4890 261° West 371 427 36,000  Level FlightAware
09:25PM 42.6150 -93.5790 261° West 370 426 36,000  Level FlightAware
09:26PM 42.6030 -93.6840 261° West 369 425 36,000  Level FlightAware
09:26PM 42.5910 -93.7780 260° West 371 427 36,000  Level FlightAware
09:27PM 42.5800 -93.8700 261° West 372 428 36,000  Level FlightAware
09:28PM 42.5680 -93.9700 261° West 373 429 36,000  Level FlightAware
09:29PM 42.5570 -94.0620 261° West 374 430 36,000  Level FlightAware
09:29PM 42.5440 -94.1690 261° West 373 429 36,000  Level FlightAware
09:30PM 42.5320 -94.2580 260° West 368 423 36,000  Level FlightAware
09:31PM 42.5210 -94.3460 260° West 365 420 36,000  Level FlightAware
09:31PM 42.5090 -94.4450 261° West 364 419 36,000  Level FlightAware
09:32PM 42.4980 -94.5330 260° West 362 417 36,000  Level FlightAware
09:33PM 42.4880 -94.6070 260° West 362 417 36,000  Level FlightAware
09:33PM 42.4760 -94.7020 260° West 362 417 36,000  Level FlightAware
09:34PM 42.4660 -94.7780 260° West 362 417 36,000  Level FlightAware
09:35PM 42.4560 -94.8540 260° West 362 417 36,000  Level FlightAware
09:35PM 42.4460 -94.9300 260° West 362 417 36,000  Level FlightAware
09:36PM 42.4340 -95.0250 260° West 362 417 36,000  Level FlightAware
09:37PM 42.4240 -95.1010 260° West 362 417 36,000  Level FlightAware
09:38PM 42.4140 -95.1770 260° West 362 417 36,000  Level FlightAware
09:38PM 42.4040 -95.2530 260° West 362 417 36,000  Level FlightAware
09:39PM 42.3940 -95.3290 260° West 362 417 36,000  Level FlightAware
09:40PM 42.3820 -95.4240 260° West 362 417 36,000  Level FlightAware
09:40PM 42.3720 -95.5000 260° West 362 417 36,000  Level FlightAware
09:41PM 42.3620 -95.5760 260° West 362 417 36,000  Level FlightAware
09:42PM 42.3520 -95.6510 260° West 362 417 36,000  Level FlightAware
09:43PM 42.3119 -95.9194 260° West 365 420 36,000  Level Minneapolis Center
09:44PM 42.2889 -96.0836 259° West 371 427 36,000  Level Minneapolis Center
09:45PM 42.2697 -96.2225 259° West 375 432 36,000  Level Minneapolis Center
09:46PM 42.2497 -96.3597 259° West 376 433 36,000  Level Minneapolis Center
09:47PM 42.2297 -96.4958 259° West 373 429 36,000  Level Minneapolis Center
09:48PM 42.2094 -96.6331 259° West 373 429 36,000  Level Minneapolis Center
09:49PM 42.1894 -96.7692 259° West 372 428 36,000  Level Minneapolis Center
09:50PM 42.1650 -96.9328 259° West 373 429 36,000  Level Minneapolis Center
09:51PM 42.1456 -97.0653 259° West 367 422 36,000  Level Minneapolis Center
09:52PM 42.1239 -97.2019 258° West 370 426 36,000  Level Minneapolis Center
09:53PM 42.1044 -97.3372 259° West 371 427 36,000  Level Minneapolis Center
09:54PM 42.0828 -97.4742 258° West 373 429 36,000  Level Minneapolis Center
09:55PM 42.0614 -97.6111 258° West 376 433 36,000  Level Minneapolis Center
09:56PM 42.0408 -97.7494 259° West 376 433 36,000  Level Minneapolis Center
09:57PM 42.0136 -97.9133 257° West 377 434 36,000  Level Minneapolis Center
09:58PM 41.9903 -98.0500 257° West 378 435 36,000  Level Minneapolis Center
09:59PM 41.9636 -98.1769 254° West 376 433 36,000  Level Minneapolis Center
10:00PM 41.9344 -98.3117 254° West 378 435 36,000  Level Minneapolis Center
10:01PM 41.9067 -98.4467 255° West 377 434 36,000  Level Minneapolis Center
10:02PM 41.8708 -98.6100 254° West 379 436 36,000  Level Minneapolis Center
10:03PM 41.8422 -98.7469 254° West 381 438 36,000  Level Minneapolis Center
10:04PM 41.8131 -98.8814 254° West 379 436 36,000  Level Minneapolis Center
10:05PM 41.7836 -99.0147 254° West 377 434 36,000  Level Minneapolis Center
10:06PM 41.7539 -99.1514 254° West 379 436 36,000  Level Denver Center
10:07PM 41.7231 -99.2864 253° West 381 438 36,000 60 Level Denver Center
10:08PM 41.6922 -99.4219 253° West 382 440 36,200 480 Climbing Denver Center
10:09PM 41.6636 -99.5564 254° West 379 436 37,000 360 Climbing Denver Center
10:10PM 41.6269 -99.7181 253° West 380 437 37,000  Level Denver Center
10:11PM 41.5986 -99.8428 253° West 380 437 37,000  Level Denver Center
10:12PM 41.5639 -99.9956 253° West 385 443 37,000  Level Denver Center
10:13PM 41.5342 -100.1261 253° West 385 443 37,000  Level Denver Center
10:14PM 41.4986 -100.2783 253° West 386 444 37,000  Level Denver Center
10:16PM 41.4681 -100.4106 253° West 389 448 37,000  Level Denver Center
10:21PM 41.2841 -101.1860 253° West 389 448 37,000  Level FlightAware ADS-B
10:21PM 41.2676 -101.2540 252° West 387 445 37,000  Level FlightAware ADS-B
10:22PM 41.2501 -101.3260 252° West 386 444 37,000  Level FlightAware ADS-B
10:23PM 41.2316 -101.4020 252° West 384 442 37,000  Level FlightAware ADS-B
10:23PM 41.2147 -101.4710 252° West 382 440 37,000  Level FlightAware ADS-B
10:24PM 41.1985 -101.5380 252° West 381 438 37,000  Level FlightAware ADS-B
10:24PM 41.1822 -101.6050 252° West 379 436 37,000  Level FlightAware ADS-B
10:25PM 41.1655 -101.6730 252° West 383 441 37,000 360 Level FlightAware ADS-B
10:25PM 41.1430 -101.7650 252° West 383 441 37,500 720 Climbing FlightAware
10:25PM 41.1390 -101.7810 252° West 384 442 37,600 840 Climbing FlightAware ADS-B
10:26PM 41.1221 -101.8490 252° West 384 442 38,000 360 Climbing FlightAware ADS-B
10:26PM 41.1042 -101.9210 252° West 387 445 38,000  Level FlightAware ADS-B
10:27PM 41.0873 -101.9890 252° West 387 445 38,000  Level FlightAware ADS-B
10:27PM 41.0700 -102.0570 251° West 389 448 38,000  Level FlightAware ADS-B
10:28PM 41.0519 -102.1300 252° West 391 450 38,000  Level FlightAware ADS-B
10:28PM 41.0342 -102.2000 251° West 392 451 38,000  Level FlightAware ADS-B
10:29PM 41.0168 -102.2680 251° West 393 452 38,000  Level FlightAware ADS-B
10:29PM 40.9997 -102.3370 252° West 393 452 38,000  Level FlightAware ADS-B
10:30PM 40.9819 -102.4080 252° West 394 453 38,000  Level FlightAware ADS-B
10:31PM 40.9643 -102.4770 251° West 393 452 38,000  Level FlightAware ADS-B
10:31PM 40.9467 -102.5450 251° West 394 453 38,000  Level FlightAware ADS-B
10:32PM 40.9288 -102.6150 251° West 395 455 38,000  Level FlightAware ADS-B
10:32PM 40.9113 -102.6830 251° West 397 457 38,000  Level FlightAware ADS-B
10:33PM 40.8937 -102.7520 251° West 396 456 38,000  Level FlightAware ADS-B
10:33PM 40.8733 -102.8310 251° West 397 457 38,000  Level FlightAware ADS-B
10:34PM 40.8550 -102.9020 251° West 396 456 38,000  Level FlightAware ADS-B
10:34PM 40.8372 -102.9700 251° West 397 457 38,000  Level FlightAware ADS-B
10:35PM 40.8192 -103.0390 251° West 396 456 38,000  Level FlightAware ADS-B
10:35PM 40.8006 -103.1100 251° West 395 455 38,000  Level FlightAware ADS-B
10:36PM 40.7829 -103.1780 251° West 394 453 38,000  Level FlightAware ADS-B
10:36PM 40.7623 -103.2560 251° West 395 455 38,000  Level FlightAware ADS-B
10:37PM 40.7441 -103.3250 251° West 396 456 38,000  Level FlightAware ADS-B
10:37PM 40.7256 -103.3960 251° West 396 456 38,000  Level FlightAware ADS-B
10:38PM 40.7075 -103.4640 251° West 398 458 38,000  Level FlightAware ADS-B
10:38PM 40.6889 -103.5340 251° West 398 458 38,000  Level FlightAware ADS-B
10:39PM 40.6708 -103.6020 251° West 398 458 38,000  Level FlightAware ADS-B
10:39PM 40.6525 -103.6710 251° West 398 458 38,000  Level FlightAware ADS-B
10:40PM 40.6340 -103.7400 251° West 397 457 38,000  Level FlightAware ADS-B
10:40PM 40.6156 -103.8080 250° West 398 458 38,000  Level FlightAware ADS-B
10:41PM 40.5972 -103.8760 250° West 397 457 38,000  Level FlightAware ADS-B
10:41PM 40.5785 -103.9450 250° West 397 457 38,000  Level FlightAware ADS-B
10:42PM 40.5602 -104.0130 251° West 396 456 38,000  Level FlightAware ADS-B
10:42PM 40.5417 -104.0810 250° West 396 456 38,000  Level FlightAware ADS-B
10:43PM 40.5231 -104.1500 250° West 395 455 38,000  Level FlightAware ADS-B
10:43PM 40.5045 -104.2180 250° West 395 455 38,000  Level FlightAware ADS-B
10:44PM 40.4859 -104.2860 250° West 396 456 38,000  Level FlightAware ADS-B
10:44PM 40.4672 -104.3540 250° West 398 458 38,000  Level FlightAware ADS-B
10:45PM 40.4475 -104.4250 250° West 399 459 38,000  Level FlightAware ADS-B
10:45PM 40.4285 -104.4940 250° West 400 460 38,000  Level FlightAware ADS-B
10:46PM 40.4096 -104.5630 250° West 402 463 38,000  Level FlightAware ADS-B
10:46PM 40.3902 -104.6330 250° West 403 464 38,000  Level FlightAware ADS-B
10:47PM 40.3710 -104.7020 250° West 404 465 38,000  Level FlightAware ADS-B
10:47PM 40.3515 -104.7710 250° West 405 466 38,000  Level FlightAware ADS-B
10:48PM 40.3310 -104.8450 250° West 405 466 38,000  Level FlightAware ADS-B
10:48PM 40.3116 -104.9140 250° West 405 466 38,000  Level FlightAware ADS-B
10:49PM 40.2921 -104.9830 250° West 405 466 38,000  Level FlightAware ADS-B
10:49PM 40.2718 -105.0550 250° West 406 467 38,000  Level FlightAware ADS-B
10:50PM 40.2520 -105.1250 250° West 404 465 38,000  Level FlightAware ADS-B
10:50PM 40.2314 -105.1980 250° West 402 463 38,000  Level FlightAware ADS-B
10:51PM 40.2119 -105.2660 249° West 401 461 38,000  Level FlightAware ADS-B
10:51PM 40.1920 -105.3360 250° West 400 460 38,000  Level FlightAware ADS-B
10:52PM 40.1599 -105.4480 249° West 400 460 38,000  Level FlightAware ADS-B
10:53PM 40.1277 -105.5610 250° West 397 457 38,000  Level FlightAware ADS-B
10:54PM 40.1068 -105.6330 249° West 397 457 38,000  Level FlightAware ADS-B
10:54PM 40.0866 -105.7030 249° West 405 466 38,000  Level FlightAware ADS-B
10:55PM 40.0664 -105.7720 249° West 409 471 38,000  Level FlightAware ADS-B
10:55PM 40.0453 -105.8440 249° West 409 471 38,000  Level FlightAware ADS-B
10:56PM 40.0250 -105.9140 249° West 409 471 38,000  Level FlightAware ADS-B
10:56PM 40.0044 -105.9850 249° West 407 468 38,000  Level FlightAware ADS-B
10:57PM 39.9833 -106.0530 248° West 406 467 38,000  Level FlightAware ADS-B
10:57PM 39.9584 -106.1290 247° West 405 466 38,000  Level FlightAware ADS-B
10:58PM 39.9290 -106.2200 247° West 404 465 38,000  Level FlightAware ADS-B
10:58PM 39.9070 -106.2880 247° West 404 465 38,000  Level FlightAware ADS-B
10:59PM 39.8844 -106.3590 247° West 404 465 38,000  Level FlightAware ADS-B
10:59PM 39.8623 -106.4270 247° West 403 464 38,000  Level FlightAware ADS-B
11:00PM 39.8399 -106.4950 247° West 401 461 38,000  Level FlightAware ADS-B
11:01PM 39.8178 -106.5630 247° West 405 466 38,000  Level FlightAware ADS-B
11:01PM 39.7935 -106.6370 247° West 406 467 38,000  Level FlightAware ADS-B
11:02PM 39.7712 -106.7050 247° West 407 468 38,000  Level FlightAware ADS-B
11:02PM 39.7485 -106.7740 247° West 408 470 38,000  Level FlightAware ADS-B
11:03PM 39.7262 -106.8420 247° West 408 470 38,000  Level FlightAware ADS-B
11:03PM 39.7023 -106.9150 247° West 407 468 38,000  Level FlightAware ADS-B
11:04PM 39.6796 -106.9830 247° West 406 467 38,000  Level FlightAware ADS-B
11:04PM 39.6505 -107.0700 247° West 406 467 38,000  Level FlightAware ADS-B
11:05PM 39.6279 -107.1380 247° West 407 468 38,000  Level FlightAware ADS-B
11:05PM 39.6040 -107.2090 246° West 407 468 38,000  Level FlightAware ADS-B
11:06PM 39.5814 -107.2770 247° West 407 468 38,000  Level FlightAware ADS-B
11:06PM 39.5585 -107.3450 246° West 408 470 38,000  Level FlightAware ADS-B
11:07PM 39.5353 -107.4140 246° West 407 468 38,000  Level FlightAware ADS-B
11:08PM 39.4860 -107.5610 247° West 408 470 38,000  Level FlightAware
11:09PM 39.4460 -107.6790 246° West 409 471 38,000  Level FlightAware
11:10PM 39.4190 -107.7550 245° Southwest 409 471 38,000  Level FlightAware
11:10PM 39.3930 -107.8310 246° West 409 471 38,000  Level FlightAware
11:11PM 39.3600 -107.9260 246° West 409 471 38,000  Level FlightAware
11:12PM 39.3340 -108.0020 246° West 409 471 38,000  Level FlightAware
11:12PM 39.3080 -108.0780 246° West 409 471 38,000  Level FlightAware
11:13PM 39.2820 -108.1540 246° West 409 471 38,000  Level FlightAware
11:14PM 39.2560 -108.2300 246° West 409 471 38,000  Level FlightAware
11:15PM 39.2230 -108.3250 246° West 409 471 38,000  Level FlightAware
11:15PM 39.1970 -108.4010 246° West 409 471 38,000  Level FlightAware
11:16PM 39.1710 -108.4760 246° West 409 471 38,000  Level FlightAware
11:17PM 39.1450 -108.5520 246° West 409 471 38,000  Level FlightAware
11:17PM 39.1180 -108.6280 245° Southwest 409 471 38,000  Level FlightAware
11:18PM 39.0860 -108.7230 247° West 409 471 38,000  Level FlightAware
11:19PM 38.9778 -109.0419 247° West 402 463 38,000  Level Salt Lake Center
11:20PM 38.9344 -109.1717 247° West 408 470 38,000  Level Denver Center
11:21PM 38.8914 -109.3008 247° West 408 470 38,000  Level Denver Center
11:22PM 38.8419 -109.4508 247° West 408 470 38,000  Level Denver Center
11:24PM 38.7992 -109.5794 247° West 411 473 38,000  Level Denver Center
11:25PM 38.7417 -109.7478 246° West 405 466 38,000  Level Denver Center
11:25PM 38.7000 -109.8781 248° West 409 471 38,000  Level Salt Lake Center
11:27PM 38.6558 -110.0039 246° West 406 467 38,000  Level Salt Lake Center
11:28PM 38.6122 -110.1333 247° West 411 473 38,000  Level Salt Lake Center
11:29PM 38.5628 -110.2814 247° West 408 470 38,000  Level Salt Lake Center
11:30PM 38.5181 -110.4100 246° West 412 474 38,000  Level Salt Lake Center
11:31PM 38.4733 -110.5361 246° West 410 472 38,000  Level Denver Center
11:32PM 38.4222 -110.6847 246° West 410 472 38,000  Level Salt Lake Center
11:33PM 38.3697 -110.8094 242° Southwest 416 479 38,000  Level Salt Lake Center
11:34PM 38.3022 -110.9589 240° Southwest 414 476 38,000  Level Salt Lake Center
11:35PM 38.2461 -111.0861 241° Southwest 413 475 38,000  Level Salt Lake Center
11:36PM 38.1894 -111.2106 240° Southwest 409 471 38,000  Level Salt Lake Center
11:37PM 38.1333 -111.3367 241° Southwest 410 472 38,000  Level Salt Lake Center
11:38PM 38.0767 -111.4614 240° Southwest 409 471 38,000  Level Salt Lake Center
11:39PM 38.0208 -111.5875 241° Southwest 411 473 38,000  Level Salt Lake Center
11:40PM 37.9611 -111.7106 238° Southwest 411 473 38,000  Level Salt Lake Center
11:41PM 37.9031 -111.8353 239° Southwest 411 473 38,000  Level Salt Lake Center
11:42PM 37.8464 -111.9611 240° Southwest 412 474 38,000  Level Salt Lake Center
11:43PM 37.7781 -112.1114 240° Southwest 413 475 38,000  Level Salt Lake Center
11:44PM 37.7197 -112.2364 239° Southwest 413 475 38,000  Level Salt Lake Center
11:50PM 37.3200 -112.8790 239° Southwest 413 475 38,000  Level FlightAware
11:50PM 37.2710 -112.9550 231° Southwest 415 478 38,000  Level FlightAware
11:51PM 37.2220 -113.0290 230° Southwest 416 479 38,000  Level FlightAware
11:52PM 37.1660 -113.1150 231° Southwest 417 480 38,000  Level FlightAware
11:52PM 37.1170 -113.1900 231° Southwest 416 479 38,000  Level FlightAware
11:53PM 37.0680 -113.2660 231° Southwest 418 481 38,000  Level FlightAware
11:54PM 37.0160 -113.3460 231° Southwest 414 476 38,000  Level FlightAware
11:54PM 36.9660 -113.4220 231° Southwest 414 476 38,000  Level FlightAware
11:55PM 36.9100 -113.5060 230° Southwest 413 475 38,000  Level FlightAware
11:56PM 36.8610 -113.5800 230° Southwest 412 474 38,000  Level FlightAware
11:56PM 36.8130 -113.6530 231° Southwest 412 474 38,000  Level FlightAware
11:57PM 36.7590 -113.7340 230° Southwest 413 475 38,000  Level FlightAware
11:58PM 36.7100 -113.8080 230° Southwest 415 478 38,000  Level FlightAware
11:59PM 36.6540 -113.8930 231° Southwest 419 482 38,000  Level FlightAware
11:59PM 36.6060 -113.9640 230° Southwest 418 481 38,000  Level FlightAware
12:00AM 36.5500 -114.0470 230° Southwest 418 481 38,000  Level FlightAware
12:01AM 36.5000 -114.1210 230° Southwest 418 481 38,000  Level FlightAware
12:01AM 36.4500 -114.1960 230° Southwest 417 480 38,000  Level FlightAware
12:02AM 36.3940 -114.2790 230° Southwest 418 481 38,000  Level FlightAware
12:03AM 36.3440 -114.3530 230° Southwest 416 479 38,000  Level FlightAware
12:04AM 36.2900 -114.4330 230° Southwest 415 478 38,000  Level FlightAware
12:04AM 36.2390 -114.5080 230° Southwest 415 478 38,000  Level FlightAware
12:05AM 36.1900 -114.5800 230° Southwest 414 476 38,000  Level FlightAware
12:06AM 36.1350 -114.6600 230° Southwest 414 476 38,000  Level FlightAware
12:06AM 36.0870 -114.7310 230° Southwest 415 478 38,000  Level FlightAware
12:07AM 36.0290 -114.8160 230° Southwest 414 476 38,000  Level FlightAware
12:08AM 35.9790 -114.8870 229° Southwest 415 478 38,000  Level FlightAware
12:08AM 35.9280 -114.9560 228° Southwest 416 479 38,000  Level FlightAware
12:09AM 35.8700 -115.0340 227° Southwest 417 480 38,000  Level FlightAware
12:10AM 35.8180 -115.1060 228° Southwest 415 478 38,000  Level FlightAware
12:11AM 35.7610 -115.1830 228° Southwest 416 479 38,000  Level FlightAware
12:11AM 35.7080 -115.2550 228° Southwest 416 479 38,000  Level FlightAware
12:12AM 35.6550 -115.3250 227° Southwest 414 476 38,000  Level FlightAware
12:13AM 35.5990 -115.4010 228° Southwest 412 474 38,000  Level FlightAware
12:13AM 35.5470 -115.4710 228° Southwest 411 473 38,000  Level FlightAware
12:14AM 35.4860 -115.5450 225° Southwest 413 475 38,000  Level FlightAware
12:15AM 35.4310 -115.6090 223° Southwest 413 475 38,000  Level FlightAware
12:15AM 35.3750 -115.6740 223° Southwest 414 476 38,000  Level FlightAware
12:16AM 35.3140 -115.7440 223° Southwest 414 476 38,000  Level FlightAware
12:17AM 35.2570 -115.8100 223° Southwest 415 478 38,000  Level FlightAware
12:18AM 35.1940 -115.8830 223° Southwest 418 481 38,000  Level FlightAware
12:18AM 35.1380 -115.9470 223° Southwest 418 481 38,000  Level FlightAware
12:19AM 35.0820 -116.0120 224° Southwest 418 481 38,000  Level FlightAware
12:19AM 35.0380 -116.0620 223° Southwest 418 481 38,000  Level FlightAware
12:20AM 34.9780 -116.1280 222° Southwest 418 481 38,000 -600 Level FlightAware
12:21AM 34.9010 -116.2180 224° Southwest 420 483 37,100 -1,380 Descending FlightAware
12:22AM 34.8550 -116.2700 223° Southwest 423 487 36,200 -720 Descending FlightAware
12:22AM 34.7980 -116.3320 222° Southwest 423 487 36,200 -960 Level FlightAware
12:23AM 34.7180 -116.4250 224° Southwest 435 501 34,700 -1,500 Descending FlightAware
12:24AM 34.6570 -116.4940 223° Southwest 435 501 34,000 -1,140 Descending FlightAware
12:25AM 34.5910 -116.5690 223° Southwest 435 501 33,100 -2,100 Descending FlightAware
12:25AM 34.5320 -116.6350 223° Southwest 435 501 31,100 -3,300 Descending FlightAware
12:26AM 34.4730 -116.7010 223° Southwest 439 505 28,700 -3,300 Descending FlightAware
12:27AM 34.4070 -116.7760 223° Southwest 437 503 26,500 -2,760 Descending FlightAware
12:27AM 34.3450 -116.8440 222° Southwest 423 487 24,800 -2,520 Descending FlightAware
12:28AM 34.2830 -116.9140 223° Southwest 413 475 23,000 -2,700 Descending FlightAware
12:29AM 34.2260 -116.9770 222° Southwest 415 478 21,000 -2,880 Descending FlightAware
12:29AM 34.1710 -117.0390 223° Southwest 413 475 19,200 -2,220 Descending FlightAware
12:30AM 34.1090 -117.1110 224° Southwest 385 443 17,900 -1,740 Descending FlightAware
12:31AM 34.0750 -117.1830 240° Southwest 365 420 16,800 -1,680 Descending FlightAware
12:32AM 34.0470 -117.2620 247° West 345 397 15,600 -1,560 Descending FlightAware
12:32AM 34.0390 -117.3370 263° West 340 391 14,600 -1,500 Descending FlightAware
12:33AM 34.0330 -117.4120 265° West 343 395 13,600 -1,560 Descending FlightAware
12:34AM 34.0240 -117.5000 263° West 335 386 12,400 -1,500 Descending FlightAware
12:34AM 34.0180 -117.5700 264° West 329 379 11,500 -1,440 Descending FlightAware
12:35AM 34.0100 -117.6510 263° West 317 365 10,400 -1,380 Descending FlightAware
12:35AM 34.0050 -117.6960 262° West 296 341 9,900 -1,140 Descending FlightAware
12:36AM 34.0010 -117.7430 264° West 281 323 9,400 -1,200 Descending FlightAware
12:36AM 33.9990 -117.7650 264° West 282 325 9,000 -1,500 Descending FlightAware
12:37AM 33.9950 -117.8060 263° West 279 321 8,400 -1,440 Descending FlightAware
12:37AM 33.9910 -117.8510 264° West 272 313 7,700 -1,320 Descending FlightAware
12:38AM 33.9870 -117.8870 262° West 269 310 7,200 -1,320 Descending FlightAware
12:38AM 33.9830 -117.9320 264° West 265 305 6,500 -1,200 Descending FlightAware
12:39AM 33.9780 -117.9750 262° West 256 295 6,000 -1,020 Descending FlightAware
12:39AM 33.9750 -118.0110 264° West 257 296 5,600 -1,020 Descending FlightAware
12:39AM 33.9700 -118.0540 262° West 253 291 5,100 -1,020 Descending FlightAware
12:40AM 33.9670 -118.0870 264° West 241 277 4,700 -1,140 Descending FlightAware
12:40AM 33.9640 -118.1270 265° West 236 272 4,100 -1,200 Descending FlightAware
12:41AM 33.9620 -118.1470 263° West 236 272 3,800 -1,380 Descending FlightAware
12:41AM 33.9570 -118.1860 261° West 234 269 3,100 -1,200 Descending FlightAware
12:42AM 33.9540 -118.2160 263° West 223 257 2,700 -1,080 Descending FlightAware
12:42AM 33.9510 -118.2450 263° West 216 249 2,200 -1,200 Descending FlightAware
12:42AM 33.9480 -118.2790 264° West 206 237 1,600 -1,140 Descending FlightAware
12:43AM 33.9440 -118.3130 262° West 167 192 1,100 -480 Descending FlightAware
12:43AM 33.9436 -118.3217 262° West 207 238 1,200 240 Climbing Los Angeles Center